createdAt,value
2023-02-28T00:00:47.217Z,36.94
2023-02-28T00:01:47.248Z,36.94
2023-02-28T00:02:47.336Z,37.04
2023-02-28T00:03:47.315Z,36.94
2023-02-28T00:04:47.219Z,36.94
2023-02-28T00:05:47.529Z,36.94
2023-02-28T00:06:47.203Z,36.94
2023-02-28T00:07:47.212Z,36.84
2023-02-28T00:08:47.330Z,36.74
2023-02-28T00:09:47.168Z,36.84
2023-02-28T00:10:47.155Z,36.84
2023-02-28T00:11:47.177Z,36.74
2023-02-28T00:12:47.145Z,36.74
2023-02-28T00:13:47.162Z,36.74
2023-02-28T00:14:47.252Z,36.74
2023-02-28T00:15:47.117Z,36.64
2023-02-28T00:16:47.170Z,36.64
2023-02-28T00:17:47.107Z,36.64
2023-02-28T00:18:47.084Z,36.64
2023-02-28T00:19:47.068Z,36.64
2023-02-28T00:20:47.203Z,36.54
2023-02-28T00:21:47.048Z,36.54
2023-02-28T00:22:47.038Z,36.54
2023-02-28T00:23:47.038Z,36.54
2023-02-28T00:24:47.014Z,36.44
2023-02-28T00:25:47.013Z,36.44
2023-02-28T00:26:47.138Z,36.44
2023-02-28T00:27:46.994Z,36.44
2023-02-28T00:28:46.968Z,36.44
2023-02-28T00:29:46.979Z,36.44
2023-02-28T00:30:46.999Z,36.44
2023-02-28T00:31:47.027Z,36.33
2023-02-28T00:32:47.163Z,36.33
2023-02-28T00:33:46.949Z,36.33
2023-02-28T00:34:46.913Z,36.33
2023-02-28T00:35:47.611Z,36.33
2023-02-28T00:36:47.027Z,36.33
2023-02-28T00:37:46.912Z,36.33
2023-02-28T00:38:47.031Z,36.33
2023-02-28T00:39:46.863Z,36.33
2023-02-28T00:40:46.859Z,36.24
2023-02-28T00:41:46.864Z,36.24
2023-02-28T00:42:46.831Z,36.24
2023-02-28T00:43:46.826Z,36.24
2023-02-28T00:44:46.948Z,36.24
2023-02-28T00:45:46.850Z,36.24
2023-02-28T00:46:46.787Z,36.24
2023-02-28T00:47:46.782Z,36.24
2023-02-28T00:48:46.763Z,36.13
2023-02-28T00:49:46.758Z,36.13
2023-02-28T00:50:46.868Z,36.13
2023-02-28T00:51:46.735Z,36.13
2023-02-28T00:52:46.716Z,36.13
2023-02-28T00:53:46.721Z,36.13
2023-02-28T00:54:46.711Z,36.13
2023-02-28T00:55:46.715Z,36.13
2023-02-28T00:56:46.824Z,36.13
2023-02-28T00:57:46.674Z,36.04
2023-02-28T00:58:46.668Z,36.04
2023-02-28T00:59:46.648Z,36.04
2023-02-28T01:00:46.640Z,36.04
2023-02-28T01:01:46.706Z,36.04
2023-02-28T01:02:46.923Z,36.04
2023-02-28T01:03:46.615Z,36.04
2023-02-28T01:04:46.624Z,36.04
2023-02-28T01:05:46.614Z,36.04
2023-02-28T01:06:46.582Z,36.04
2023-02-28T01:07:46.575Z,36.04
2023-02-28T01:08:46.717Z,36.04
2023-02-28T01:09:46.560Z,35.93
2023-02-28T01:10:46.552Z,35.93
2023-02-28T01:11:46.530Z,35.93
2023-02-28T01:12:46.515Z,35.93
2023-02-28T01:13:46.530Z,35.93
2023-02-28T01:14:46.650Z,35.93
2023-02-28T01:15:46.617Z,35.93
2023-02-28T01:16:46.484Z,35.93
2023-02-28T01:17:46.462Z,35.93
2023-02-28T01:18:46.462Z,35.93
2023-02-28T01:19:46.457Z,35.93
2023-02-28T01:20:46.558Z,35.93
2023-02-28T01:21:46.424Z,35.93
2023-02-28T01:22:46.406Z,35.93
2023-02-28T01:23:46.425Z,35.93
2023-02-28T01:24:48.307Z,35.83
2023-02-28T01:25:46.449Z,35.83
2023-02-28T01:26:46.500Z,35.83
2023-02-28T01:27:46.441Z,35.83
2023-02-28T01:28:46.360Z,35.83
2023-02-28T01:29:46.347Z,35.83
2023-02-28T01:30:46.363Z,35.83
2023-02-28T01:31:46.391Z,35.73
2023-02-28T01:32:46.435Z,35.83
2023-02-28T01:33:46.335Z,35.73
2023-02-28T01:34:46.299Z,35.73
2023-02-28T01:35:46.320Z,35.73
2023-02-28T01:36:46.278Z,35.73
2023-02-28T01:37:46.251Z,35.73
2023-02-28T01:38:46.400Z,35.73
2023-02-28T01:39:46.230Z,35.73
2023-02-28T01:40:46.252Z,35.63
2023-02-28T01:41:46.210Z,35.63
2023-02-28T01:42:46.209Z,35.63
2023-02-28T01:43:46.187Z,35.63
2023-02-28T01:44:46.316Z,35.63
2023-02-28T01:45:46.161Z,35.63
2023-02-28T01:46:46.201Z,35.63
2023-02-28T01:47:46.140Z,35.63
2023-02-28T01:48:46.141Z,35.63
2023-02-28T01:49:46.133Z,35.53
2023-02-28T01:50:46.253Z,35.53
2023-02-28T01:51:46.126Z,35.53
2023-02-28T01:52:46.096Z,35.53
2023-02-28T01:53:46.093Z,35.43
2023-02-28T01:54:46.092Z,35.43
2023-02-28T01:55:46.068Z,35.53
2023-02-28T01:56:46.206Z,35.53
2023-02-28T01:57:46.045Z,35.53
2023-02-28T01:58:46.134Z,35.53
2023-02-28T01:59:46.016Z,35.53
2023-02-28T02:00:46.021Z,35.53
2023-02-28T02:01:46.058Z,35.53
2023-02-28T02:02:46.167Z,35.53
2023-02-28T02:03:45.993Z,35.53
2023-02-28T02:04:45.974Z,35.53
2023-02-28T02:05:46.005Z,35.53
2023-02-28T02:06:45.949Z,35.53
2023-02-28T02:07:45.960Z,35.53
2023-02-28T02:08:46.123Z,35.53
2023-02-28T02:09:45.955Z,35.53
2023-02-28T02:10:45.944Z,35.53
2023-02-28T02:11:46.103Z,35.53
2023-02-28T02:12:45.327Z,35.53
2023-02-28T02:13:46.632Z,35.43
2023-02-28T02:14:46.358Z,35.43
2023-02-28T02:15:45.952Z,35.43
2023-02-28T02:16:46.966Z,35.43
2023-02-28T02:17:46.920Z,35.43
2023-02-28T02:29:58.521Z,35.43
2023-02-28T02:30:06.622Z,35.33
2023-02-28T02:31:04.350Z,35.23
2023-02-28T02:32:08.805Z,35.23
2023-02-28T02:33:04.353Z,35.23
2023-02-28T02:34:04.728Z,35.23
2023-02-28T02:36:41.056Z,35.23
2023-02-28T02:36:46.240Z,35.23
2023-02-28T02:37:46.067Z,35.23
2023-02-28T02:38:46.047Z,35.23
2023-02-28T02:39:46.039Z,35.23
2023-02-28T02:40:46.250Z,35.13
2023-02-28T02:41:46.031Z,35.13
2023-02-28T02:42:46.160Z,35.13
2023-02-28T02:43:46.007Z,35.13
2023-02-28T02:44:45.992Z,35.13
2023-02-28T02:45:45.987Z,35.13
2023-02-28T02:46:46.087Z,35.13
2023-02-28T02:47:45.959Z,35.13
2023-02-28T02:48:46.078Z,35.13
2023-02-28T02:49:45.948Z,35.03
2023-02-28T02:50:45.924Z,35.03
2023-02-28T02:51:45.923Z,35.03
2023-02-28T02:52:45.914Z,35.03
2023-02-28T02:53:45.913Z,35.03
2023-02-28T02:54:46.037Z,35.03
2023-02-28T02:55:45.911Z,35.03
2023-02-28T02:56:45.872Z,35.03
2023-02-28T02:57:45.916Z,35.03
2023-02-28T02:58:45.851Z,35.03
2023-02-28T02:59:45.845Z,35.03
2023-02-28T03:00:46.020Z,35.03
2023-02-28T03:01:45.837Z,35.03
2023-02-28T03:02:45.809Z,35.03
2023-02-28T03:03:45.832Z,35.03
2023-02-28T03:04:45.784Z,35.03
2023-02-28T03:05:45.785Z,34.92
2023-02-28T03:06:45.934Z,34.92
2023-02-28T03:07:45.760Z,34.92
2023-02-28T03:08:45.747Z,34.92
2023-02-28T03:09:45.728Z,34.92
2023-02-28T03:10:45.720Z,34.92
2023-02-28T03:11:45.711Z,34.92
2023-02-28T03:12:45.834Z,34.92
2023-02-28T03:13:45.700Z,34.92
2023-02-28T03:14:45.688Z,34.92
2023-02-28T03:15:45.685Z,34.92
2023-02-28T03:16:45.655Z,34.92
2023-02-28T03:17:45.650Z,34.92
2023-02-28T03:18:45.808Z,34.92
2023-02-28T03:19:45.625Z,34.92
2023-02-28T03:20:45.613Z,34.92
2023-02-28T03:21:45.612Z,34.92
2023-02-28T03:22:45.624Z,34.92
2023-02-28T03:23:45.587Z,34.92
2023-02-28T03:24:45.730Z,35.03
2023-02-28T03:25:45.572Z,35.03
2023-02-28T03:26:45.635Z,34.92
2023-02-28T03:27:45.551Z,35.03
2023-02-28T03:28:45.537Z,34.92
2023-02-28T03:29:45.537Z,34.92
2023-02-28T03:30:45.652Z,34.92
2023-02-28T03:31:45.604Z,34.92
2023-02-28T03:32:45.527Z,34.92
2023-02-28T03:33:45.484Z,34.92
2023-02-28T03:34:45.465Z,34.92
2023-02-28T03:35:45.486Z,34.92
2023-02-28T03:36:45.689Z,34.92
2023-02-28T03:37:45.442Z,34.83
2023-02-28T03:38:45.443Z,34.83
2023-02-28T03:39:45.596Z,34.83
2023-02-28T03:40:45.407Z,34.83
2023-02-28T03:41:45.409Z,34.83
2023-02-28T03:42:45.531Z,34.83
2023-02-28T03:43:45.389Z,34.83
2023-02-28T03:44:45.387Z,34.83
2023-02-28T03:45:45.402Z,34.83
2023-02-28T03:46:45.346Z,34.83
2023-02-28T03:47:45.338Z,34.83
2023-02-28T03:48:45.360Z,34.83
2023-02-28T03:49:45.324Z,34.83
2023-02-28T03:50:45.307Z,34.72
2023-02-28T03:51:45.301Z,34.72
2023-02-28T03:52:45.354Z,34.72
2023-02-28T03:53:45.327Z,34.72
2023-02-28T03:54:45.392Z,34.72
2023-02-28T03:55:45.257Z,34.72
2023-02-28T03:56:45.246Z,34.72
2023-02-28T03:57:45.247Z,34.72
2023-02-28T03:58:45.218Z,34.72
2023-02-28T03:59:45.275Z,34.72
2023-02-28T04:00:45.337Z,34.72
2023-02-28T04:01:45.307Z,34.72
2023-02-28T04:02:45.195Z,34.72
2023-02-28T04:03:45.187Z,34.72
2023-02-28T04:04:45.208Z,34.72
2023-02-28T04:05:45.152Z,34.72
2023-02-28T04:06:45.282Z,34.72
2023-02-28T04:07:45.129Z,34.72
2023-02-28T04:08:45.132Z,34.63
2023-02-28T04:09:45.124Z,34.72
2023-02-28T04:10:45.098Z,34.63
2023-02-28T04:11:45.108Z,34.63
2023-02-28T04:12:45.226Z,34.63
2023-02-28T04:13:47.390Z,34.63
2023-02-28T04:14:45.085Z,34.63
2023-02-28T04:15:45.077Z,34.63
2023-02-28T04:16:45.089Z,34.63
2023-02-28T04:17:45.028Z,34.63
2023-02-28T04:18:45.206Z,34.63
2023-02-28T04:19:45.015Z,34.63
2023-02-28T04:20:44.991Z,34.63
2023-02-28T04:21:44.984Z,34.63
2023-02-28T04:22:44.966Z,34.63
2023-02-28T04:23:44.962Z,34.63
2023-02-28T04:24:45.092Z,34.63
2023-02-28T04:25:44.957Z,34.63
2023-02-28T04:26:44.943Z,34.63
2023-02-28T04:27:44.924Z,34.63
2023-02-28T04:28:44.904Z,34.63
2023-02-28T04:29:44.911Z,34.63
2023-02-28T04:30:45.037Z,34.63
2023-02-28T04:31:44.989Z,34.63
2023-02-28T04:32:44.878Z,34.63
2023-02-28T04:33:44.881Z,34.63
2023-02-28T04:34:44.861Z,34.63
2023-02-28T04:35:44.914Z,34.63
2023-02-28T04:36:44.973Z,34.63
2023-02-28T04:37:44.823Z,34.63
2023-02-28T04:38:44.824Z,34.52
2023-02-28T04:39:44.833Z,34.63
2023-02-28T04:40:44.784Z,34.63
2023-02-28T04:41:44.789Z,34.63
2023-02-28T04:42:44.915Z,34.63
2023-02-28T04:43:44.761Z,34.52
2023-02-28T04:44:44.742Z,34.52
2023-02-28T04:45:44.772Z,34.52
2023-02-28T04:46:44.722Z,34.52
2023-02-28T04:47:44.718Z,34.52
2023-02-28T04:48:44.855Z,34.63
2023-02-28T04:49:44.690Z,34.52
2023-02-28T04:50:44.679Z,34.52
2023-02-28T04:51:44.695Z,34.52
2023-02-28T04:52:44.651Z,34.52
2023-02-28T04:53:44.650Z,34.52
2023-02-28T04:54:44.793Z,34.52
2023-02-28T04:55:44.629Z,34.52
2023-02-28T04:56:44.613Z,34.52
2023-02-28T04:57:44.619Z,34.52
2023-02-28T04:58:44.617Z,34.52
2023-02-28T04:59:44.581Z,34.52
2023-02-28T05:00:44.704Z,34.52
2023-02-28T05:01:44.584Z,34.52
2023-02-28T05:02:44.552Z,34.52
2023-02-28T05:03:44.539Z,34.42
2023-02-28T05:04:44.567Z,34.42
2023-02-28T05:05:44.540Z,34.52
2023-02-28T05:06:44.655Z,34.42
2023-02-28T05:07:44.503Z,34.52
2023-02-28T05:08:44.518Z,34.52
2023-02-28T05:09:44.485Z,34.54
2023-02-28T05:10:44.469Z,34.42
2023-02-28T05:11:44.479Z,34.42
2023-02-28T05:12:44.538Z,34.52
2023-02-28T05:13:44.438Z,34.63
2023-02-28T05:14:44.424Z,34.63
2023-02-28T05:15:44.434Z,34.72
2023-02-28T05:16:44.410Z,34.72
2023-02-28T05:17:44.391Z,34.83
2023-02-28T05:18:44.908Z,34.83
2023-02-28T05:19:44.379Z,35.03
2023-02-28T05:20:44.368Z,35.03
2023-02-28T05:21:44.383Z,35.03
2023-02-28T05:22:44.373Z,35.03
2023-02-28T05:23:44.402Z,35.13
2023-02-28T05:24:44.510Z,35.13
2023-02-28T05:25:44.619Z,35.23
2023-02-28T05:26:44.309Z,35.23
2023-02-28T05:27:44.297Z,35.23
2023-02-28T05:28:44.280Z,35.23
2023-02-28T05:29:44.218Z,35.23
2023-02-28T05:30:44.397Z,35.13
2023-02-28T05:31:44.347Z,35.13
2023-02-28T05:32:44.252Z,35.13
2023-02-28T05:33:44.189Z,35.13
2023-02-28T05:34:44.179Z,35.13
2023-02-28T05:35:44.190Z,35.13
2023-02-28T05:36:44.302Z,35.03
2023-02-28T05:37:44.195Z,35.03
2023-02-28T05:38:44.180Z,35.03
2023-02-28T05:39:44.188Z,34.92
2023-02-28T05:40:44.155Z,35.03
2023-02-28T05:41:44.154Z,35.03
2023-02-28T05:42:44.277Z,35.03
2023-02-28T05:43:44.126Z,35.03
2023-02-28T05:44:44.123Z,34.92
2023-02-28T05:45:44.124Z,34.92
2023-02-28T05:46:44.097Z,34.92
2023-02-28T05:47:44.083Z,34.92
2023-02-28T05:48:44.238Z,35.03
2023-02-28T05:49:44.031Z,32.11
2023-02-28T05:50:44.020Z,26.18
2023-02-28T05:51:43.978Z,27.91
2023-02-28T05:52:43.988Z,29.03
2023-02-28T05:53:43.978Z,30.64
2023-02-28T05:54:44.123Z,31.76
2023-02-28T05:55:43.947Z,32.57
2023-02-28T05:56:43.944Z,33.68
2023-02-28T05:57:43.932Z,33.98
2023-02-28T05:58:43.927Z,34.57
2023-02-28T05:59:43.906Z,34.67
2023-02-28T06:00:44.063Z,34.77
2023-02-28T06:01:43.886Z,34.77
2023-02-28T06:02:43.891Z,34.77
2023-02-28T06:03:43.915Z,34.88
2023-02-28T06:04:43.875Z,34.77
2023-02-28T06:05:43.839Z,34.77
2023-02-28T06:06:44.023Z,34.67
2023-02-28T06:07:43.820Z,34.66
2023-02-28T06:08:43.816Z,34.66
2023-02-28T06:09:43.798Z,34.56
2023-02-28T06:10:43.828Z,34.56
2023-02-28T06:11:43.783Z,34.45
2023-02-28T06:12:43.936Z,34.45
2023-02-28T06:13:43.897Z,34.45
2023-02-28T06:14:43.762Z,34.45
2023-02-28T06:15:43.743Z,34.45
2023-02-28T06:16:43.867Z,34.56
2023-02-28T06:17:43.818Z,34.56
2023-02-28T06:18:43.842Z,34.56
2023-02-28T06:19:43.700Z,34.56
2023-02-28T06:20:43.724Z,34.56
2023-02-28T06:21:43.686Z,34.56
2023-02-28T06:22:43.688Z,34.56
2023-02-28T06:23:43.721Z,34.54
2023-02-28T06:24:43.813Z,34.54
2023-02-28T06:25:43.648Z,34.54
2023-02-28T06:26:43.659Z,34.64
2023-02-28T06:27:43.612Z,34.64
2023-02-28T06:28:43.610Z,34.64
2023-02-28T06:29:43.603Z,34.64
2023-02-28T06:30:46.549Z,34.64
2023-02-28T06:31:43.614Z,34.64
2023-02-28T06:32:43.640Z,34.74
2023-02-28T06:33:43.630Z,34.74
2023-02-28T06:34:43.750Z,34.74
2023-02-28T06:35:43.537Z,34.74
2023-02-28T06:36:43.670Z,34.74
2023-02-28T06:37:43.616Z,34.84
2023-02-28T06:38:43.533Z,34.94
2023-02-28T06:39:43.507Z,34.94
2023-02-28T06:40:43.492Z,34.94
2023-02-28T06:41:54.828Z,34.94
2023-02-28T06:42:43.630Z,34.94
2023-02-28T06:43:43.443Z,34.94
2023-02-28T06:44:43.440Z,34.94
2023-02-28T06:45:43.431Z,34.94
2023-02-28T06:46:43.428Z,34.84
2023-02-28T06:47:43.412Z,34.74
2023-02-28T06:48:43.589Z,34.64
2023-02-28T06:49:43.391Z,34.64
2023-02-28T06:50:43.382Z,35.45
2023-02-28T06:51:43.363Z,35.05
2023-02-28T06:52:43.353Z,34.84
2023-02-28T06:53:43.345Z,34.74
2023-02-28T06:54:43.491Z,34.64
2023-02-28T06:55:43.331Z,34.64
2023-02-28T06:56:43.314Z,34.64
2023-02-28T06:57:43.301Z,34.74
2023-02-28T06:58:43.301Z,34.94
2023-02-28T06:59:43.285Z,34.94
2023-02-28T07:00:43.446Z,35.05
2023-02-28T07:01:43.316Z,35.05
2023-02-28T07:02:43.273Z,35.05
2023-02-28T07:03:43.238Z,35.14
2023-02-28T07:04:43.279Z,35.14
2023-02-28T07:05:43.219Z,29.91
2023-02-28T07:06:43.358Z,29.22
2023-02-28T07:07:43.229Z,29.83
2023-02-28T07:08:43.193Z,30.86
2023-02-28T07:09:43.261Z,32.78
2023-02-28T07:10:43.173Z,34.20
2023-02-28T07:11:43.168Z,34.61
2023-02-28T07:12:43.363Z,35.01
2023-02-28T07:13:43.131Z,35.31
2023-02-28T07:14:43.122Z,35.50
2023-02-28T07:15:44.314Z,35.50
2023-02-28T07:16:43.108Z,35.50
2023-02-28T07:17:43.114Z,35.50
2023-02-28T07:18:43.271Z,35.50
2023-02-28T07:19:43.095Z,35.50
2023-02-28T07:20:43.064Z,34.97
2023-02-28T07:21:43.064Z,34.77
2023-02-28T07:22:43.070Z,35.17
2023-02-28T07:23:43.043Z,35.38
2023-02-28T07:24:43.072Z,35.48
2023-02-28T07:25:43.058Z,35.38
2023-02-28T07:26:43.018Z,35.38
2023-02-28T07:27:43.043Z,35.46
2023-02-28T07:28:43.180Z,35.36
2023-02-28T07:29:42.967Z,35.36
2023-02-28T07:30:43.109Z,35.36
2023-02-28T07:31:42.994Z,35.36
2023-02-28T07:32:45.114Z,35.36
2023-02-28T07:33:42.921Z,35.36
2023-02-28T07:34:42.964Z,35.36
2023-02-28T07:35:42.984Z,35.36
2023-02-28T07:36:43.046Z,35.36
2023-02-28T07:37:42.887Z,35.26
2023-02-28T07:38:42.904Z,35.26
2023-02-28T07:39:42.866Z,35.25
2023-02-28T07:40:42.852Z,35.14
2023-02-28T07:41:42.920Z,35.14
2023-02-28T07:42:43.006Z,35.14
2023-02-28T07:43:42.834Z,35.05
2023-02-28T07:44:42.871Z,35.05
2023-02-28T07:45:42.823Z,35.14
2023-02-28T07:46:42.960Z,35.25
2023-02-28T07:47:42.829Z,35.25
2023-02-28T07:48:42.908Z,35.35
2023-02-28T07:49:42.775Z,35.45
2023-02-28T07:50:42.772Z,35.55
2023-02-28T07:51:42.744Z,35.45
2023-02-28T07:52:42.753Z,35.45
2023-02-28T07:53:42.742Z,35.35
2023-02-28T07:54:42.779Z,35.35
2023-02-28T07:55:42.706Z,35.35
2023-02-28T07:56:42.689Z,35.35
2023-02-28T07:57:42.700Z,35.25
2023-02-28T07:58:42.734Z,35.25
2023-02-28T07:59:44.210Z,35.14
2023-02-28T08:00:42.836Z,35.14
2023-02-28T08:01:42.642Z,35.14
2023-02-28T08:02:42.640Z,35.14
2023-02-28T08:03:42.630Z,35.14
2023-02-28T08:04:42.642Z,35.14
2023-02-28T08:05:42.639Z,35.14
2023-02-28T08:06:42.849Z,35.14
2023-02-28T08:07:42.589Z,35.14
2023-02-28T08:08:42.581Z,35.14
2023-02-28T08:09:42.568Z,35.14
2023-02-28T08:10:42.567Z,35.14
2023-02-28T08:11:42.577Z,35.14
2023-02-28T08:12:42.656Z,35.14
2023-02-28T08:13:42.513Z,35.14
2023-02-28T08:14:42.531Z,35.05
2023-02-28T08:15:42.549Z,35.05
2023-02-28T08:16:42.506Z,35.05
2023-02-28T08:17:42.465Z,35.13
2023-02-28T08:18:42.621Z,35.03
2023-02-28T08:19:42.459Z,35.03
2023-02-28T08:20:42.441Z,35.03
2023-02-28T08:21:42.461Z,35.03
2023-02-28T08:22:44.821Z,35.03
2023-02-28T08:23:42.448Z,35.03
2023-02-28T08:24:42.561Z,35.03
2023-02-28T08:25:42.419Z,35.03
2023-02-28T08:26:42.380Z,35.03
2023-02-28T08:27:42.380Z,35.03
2023-02-28T08:28:42.378Z,35.03
2023-02-28T08:29:42.368Z,35.03
2023-02-28T08:30:42.633Z,35.03
2023-02-28T08:31:42.358Z,35.03
2023-02-28T08:32:42.578Z,34.92
2023-02-28T08:33:42.301Z,34.92
2023-02-28T08:34:42.297Z,34.92
2023-02-28T08:35:42.307Z,35.03
2023-02-28T08:36:42.461Z,35.03
2023-02-28T08:37:42.264Z,35.03
2023-02-28T08:38:42.317Z,35.03
2023-02-28T08:39:42.252Z,34.92
2023-02-28T08:40:42.235Z,34.83
2023-02-28T08:41:42.224Z,34.72
2023-02-28T08:42:42.397Z,34.63
2023-02-28T08:43:42.242Z,34.63
2023-02-28T08:44:42.211Z,34.52
2023-02-28T08:45:42.228Z,34.52
2023-02-28T08:46:42.191Z,34.52
2023-02-28T08:47:42.150Z,34.52
2023-02-28T08:48:42.371Z,34.52
2023-02-28T08:49:42.151Z,34.52
2023-02-28T08:50:42.552Z,34.52
2023-02-28T08:51:42.146Z,34.52
2023-02-28T08:52:42.110Z,34.52
2023-02-28T08:53:42.115Z,34.52
2023-02-28T08:54:42.255Z,34.63
2023-02-28T08:55:42.062Z,34.83
2023-02-28T08:56:42.064Z,35.03
2023-02-28T08:57:42.075Z,35.03
2023-02-28T08:58:42.063Z,35.03
2023-02-28T08:59:42.062Z,35.03
2023-02-28T09:00:42.255Z,35.03
2023-02-28T09:01:42.064Z,35.03
2023-02-28T09:02:41.994Z,35.03
2023-02-28T09:03:42.063Z,35.03
2023-02-28T09:04:41.973Z,35.03
2023-02-28T09:05:41.992Z,35.03
2023-02-28T09:06:42.097Z,35.03
2023-02-28T09:07:41.963Z,35.03
2023-02-28T09:08:41.946Z,35.03
2023-02-28T09:09:41.993Z,35.03
2023-02-28T09:10:41.931Z,35.13
2023-02-28T09:11:41.909Z,35.13
2023-02-28T09:12:42.053Z,35.13
2023-02-28T09:13:41.889Z,35.13
2023-02-28T09:14:41.914Z,35.13
2023-02-28T09:15:41.894Z,35.23
2023-02-28T09:16:41.906Z,35.23
2023-02-28T09:17:42.451Z,35.23
2023-02-28T09:18:41.998Z,35.23
2023-02-28T09:19:41.825Z,35.23
2023-02-28T09:20:41.854Z,35.23
2023-02-28T09:21:41.802Z,35.33
2023-02-28T09:22:41.852Z,35.33
2023-02-28T09:23:41.785Z,35.33
2023-02-28T09:24:41.936Z,35.43
2023-02-28T09:25:41.761Z,35.43
2023-02-28T09:26:47.237Z,35.33
2023-02-28T09:27:42.448Z,35.33
2023-02-28T09:28:41.729Z,35.33
2023-02-28T09:29:41.722Z,35.33
2023-02-28T09:30:42.042Z,35.23
2023-02-28T09:31:41.711Z,35.33
2023-02-28T09:32:41.695Z,35.23
2023-02-28T09:33:41.678Z,35.33
2023-02-28T09:34:41.753Z,35.33
2023-02-28T09:35:41.697Z,35.23
2023-02-28T09:36:45.576Z,35.23
2023-02-28T09:37:41.650Z,35.23
2023-02-28T09:38:41.695Z,35.23
2023-02-28T09:39:41.648Z,35.23
2023-02-28T09:40:41.624Z,35.23
2023-02-28T09:41:41.590Z,35.33
2023-02-28T09:42:41.752Z,35.23
2023-02-28T09:43:41.577Z,35.33
2023-02-28T09:44:42.833Z,35.33
2023-02-28T09:45:41.607Z,35.33
2023-02-28T09:46:41.644Z,35.33
2023-02-28T09:47:41.673Z,35.23
2023-02-28T09:48:41.713Z,35.23
2023-02-28T09:49:41.575Z,35.33
2023-02-28T09:50:41.568Z,35.33
2023-02-28T09:51:41.496Z,35.33
2023-02-28T09:52:41.501Z,35.33
2023-02-28T09:53:42.598Z,35.33
2023-02-28T09:54:41.623Z,35.33
2023-02-28T09:55:46.791Z,35.33
2023-02-28T09:56:41.482Z,35.33
2023-02-28T09:57:41.448Z,35.33
2023-02-28T09:58:41.422Z,35.33
2023-02-28T09:59:41.414Z,35.33
2023-02-28T10:00:41.546Z,35.33
2023-02-28T10:01:41.451Z,35.33
2023-02-28T10:02:41.384Z,35.33
2023-02-28T10:03:41.381Z,35.33
2023-02-28T10:04:41.379Z,35.23
2023-02-28T10:05:43.372Z,35.23
2023-02-28T10:06:41.487Z,35.23
2023-02-28T10:07:41.332Z,35.33
2023-02-28T10:08:41.317Z,35.33
2023-02-28T10:09:41.356Z,35.33
2023-02-28T10:10:41.319Z,35.23
2023-02-28T10:11:41.302Z,35.33
2023-02-28T10:12:41.400Z,35.33
2023-02-28T10:13:41.296Z,35.33
2023-02-28T10:14:41.253Z,35.33
2023-02-28T10:15:41.278Z,35.33
2023-02-28T10:16:41.247Z,35.23
2023-02-28T10:17:54.894Z,35.23
2023-02-28T10:18:41.350Z,35.33
2023-02-28T10:19:41.222Z,35.33
2023-02-28T10:20:41.179Z,35.33
2023-02-28T10:21:41.192Z,35.33
2023-02-28T10:22:41.186Z,35.23
2023-02-28T10:23:41.161Z,35.33
2023-02-28T10:24:41.311Z,35.33
2023-02-28T10:25:41.135Z,35.33
2023-02-28T10:26:41.165Z,35.33
2023-02-28T10:27:41.154Z,35.33
2023-02-28T10:28:41.118Z,35.33
2023-02-28T10:29:41.110Z,35.33
2023-02-28T10:30:41.327Z,35.33
2023-02-28T10:31:41.111Z,35.23
2023-02-28T10:32:41.152Z,35.23
2023-02-28T10:33:41.067Z,35.23
2023-02-28T10:34:41.048Z,35.23
2023-02-28T10:35:41.057Z,35.33
2023-02-28T10:36:41.196Z,35.33
2023-02-28T10:37:41.017Z,35.41
2023-02-28T10:38:41.079Z,35.51
2023-02-28T10:39:41.007Z,35.51
2023-02-28T10:40:40.974Z,35.61
2023-02-28T10:41:40.970Z,35.61
2023-02-28T10:42:41.100Z,35.61
2023-02-28T10:43:41.007Z,35.61
2023-02-28T10:44:40.965Z,35.71
2023-02-28T10:45:40.945Z,35.82
2023-02-28T10:46:40.945Z,35.91
2023-02-28T10:47:40.909Z,35.82
2023-02-28T10:48:41.188Z,35.91
2023-02-28T10:49:40.886Z,35.91
2023-02-28T10:50:40.882Z,36.02
2023-02-28T10:51:40.869Z,36.02
2023-02-28T10:52:40.944Z,36.02
2023-02-28T10:53:57.723Z,36.02
2023-02-28T10:54:40.970Z,35.91
2023-02-28T10:55:40.855Z,35.91
2023-02-28T10:56:40.853Z,35.91
2023-02-28T10:57:40.805Z,35.61
2023-02-28T10:58:40.813Z,33.31
2023-02-28T10:59:40.791Z,34.32
2023-02-28T11:00:40.929Z,34.94
2023-02-28T11:01:40.915Z,35.45
2023-02-28T11:02:40.750Z,35.95
2023-02-28T11:03:40.735Z,36.35
2023-02-28T11:04:40.789Z,36.55
2023-02-28T11:05:40.721Z,36.55
2023-02-28T11:06:40.853Z,36.66
2023-02-28T11:07:52.923Z,36.55
2023-02-28T11:08:40.711Z,36.55
2023-02-28T11:09:40.693Z,36.44
2023-02-28T11:10:40.691Z,36.44
2023-02-28T11:11:40.701Z,36.44
2023-02-28T11:12:50.749Z,36.33
2023-02-28T11:13:40.648Z,36.33
2023-02-28T11:14:40.687Z,36.24
2023-02-28T11:15:40.665Z,36.24
2023-02-28T11:16:40.607Z,36.24
2023-02-28T11:17:40.608Z,36.13
2023-02-28T11:18:40.730Z,36.13
2023-02-28T11:19:40.590Z,36.13
2023-02-28T11:20:40.562Z,36.13
2023-02-28T11:21:40.569Z,36.13
2023-02-28T11:22:40.628Z,36.13
2023-02-28T11:23:40.547Z,36.13
2023-02-28T11:24:40.669Z,36.13
2023-02-28T11:25:40.564Z,36.04
2023-02-28T11:26:40.492Z,36.04
2023-02-28T11:27:40.489Z,36.04
2023-02-28T11:28:40.570Z,36.04
2023-02-28T11:29:40.471Z,36.04
2023-02-28T11:30:40.598Z,36.04
2023-02-28T11:31:40.516Z,36.04
2023-02-28T11:32:40.553Z,36.04
2023-02-28T11:33:40.423Z,36.02
2023-02-28T11:34:40.422Z,36.02
2023-02-28T11:35:40.432Z,36.02
2023-02-28T11:36:40.523Z,36.02
2023-02-28T11:37:40.408Z,36.02
2023-02-28T11:38:40.410Z,36.02
2023-02-28T11:39:40.362Z,36.11
2023-02-28T11:40:40.350Z,36.11
2023-02-28T11:41:41.483Z,36.22
2023-02-28T11:42:40.484Z,36.22
2023-02-28T11:43:40.323Z,36.22
2023-02-28T11:44:40.309Z,36.22
2023-02-28T11:45:40.308Z,36.11
2023-02-28T11:46:40.352Z,36.11
2023-02-28T11:47:40.282Z,36.02
2023-02-28T11:48:40.424Z,36.02
2023-02-28T11:49:40.282Z,36.02
2023-02-28T11:50:40.242Z,36.02
2023-02-28T11:51:40.265Z,36.02
2023-02-28T11:52:40.232Z,36.02
2023-02-28T11:53:40.220Z,36.02
2023-02-28T11:54:40.469Z,36.02
2023-02-28T11:55:40.211Z,36.02
2023-02-28T11:56:40.186Z,36.02
2023-02-28T11:57:40.180Z,36.02
2023-02-28T11:58:40.166Z,36.02
2023-02-28T11:59:40.157Z,36.02
2023-02-28T12:00:40.295Z,35.91
2023-02-28T12:01:40.157Z,35.82
2023-02-28T12:02:40.333Z,35.91
2023-02-28T12:03:40.117Z,36.02
2023-02-28T12:04:40.105Z,36.02
2023-02-28T12:05:40.125Z,36.02
2023-02-28T12:06:40.209Z,36.02
2023-02-28T12:07:40.091Z,36.02
2023-02-28T12:08:40.064Z,35.91
2023-02-28T12:09:40.063Z,36.02
2023-02-28T12:10:40.046Z,36.02
2023-02-28T12:11:40.049Z,36.02
2023-02-28T12:12:40.179Z,36.02
2023-02-28T12:13:40.016Z,36.02
2023-02-28T12:14:40.010Z,36.02
2023-02-28T12:15:40.013Z,36.02
2023-02-28T12:16:40.028Z,36.02
2023-02-28T12:17:40.003Z,36.02
2023-02-28T12:18:40.105Z,36.02
2023-02-28T12:19:39.964Z,36.02
2023-02-28T12:20:39.942Z,35.91
2023-02-28T12:21:39.972Z,35.91
2023-02-28T12:22:39.918Z,36.02
2023-02-28T12:23:39.917Z,35.91
2023-02-28T12:24:40.069Z,35.91
2023-02-28T12:25:39.937Z,36.02
2023-02-28T12:26:39.887Z,36.02
2023-02-28T12:27:39.904Z,35.91
2023-02-28T12:28:39.864Z,36.02
2023-02-28T12:29:39.897Z,36.02
2023-02-28T12:30:40.009Z,36.02
2023-02-28T12:31:39.843Z,36.02
2023-02-28T12:32:39.927Z,35.91
2023-02-28T12:33:39.813Z,35.91
2023-02-28T12:34:39.810Z,35.91
2023-02-28T12:35:39.857Z,35.91
2023-02-28T12:36:39.941Z,35.91
2023-02-28T12:37:39.766Z,35.91
2023-02-28T12:38:39.764Z,36.02
2023-02-28T12:39:49.825Z,36.02
2023-02-28T12:40:39.735Z,36.02
2023-02-28T12:41:39.726Z,36.02
2023-02-28T12:42:39.870Z,35.91
2023-02-28T12:43:39.713Z,35.91
2023-02-28T12:44:39.692Z,35.91
2023-02-28T12:45:39.771Z,36.02
2023-02-28T12:46:39.750Z,36.02
2023-02-28T12:47:39.673Z,35.91
2023-02-28T12:48:39.814Z,35.91
2023-02-28T12:49:39.666Z,35.91
2023-02-28T12:50:39.629Z,35.91
2023-02-28T12:51:39.637Z,35.91
2023-02-28T12:52:39.624Z,35.91
2023-02-28T12:53:39.598Z,36.11
2023-02-28T12:54:39.835Z,36.11
2023-02-28T12:55:39.628Z,36.11
2023-02-28T12:56:39.572Z,36.11
2023-02-28T12:57:39.585Z,36.22
2023-02-28T12:58:39.548Z,36.32
2023-02-28T12:59:39.564Z,36.42
2023-02-28T13:00:39.670Z,36.52
2023-02-28T13:01:39.587Z,36.52
2023-02-28T13:02:39.609Z,36.62
2023-02-28T13:03:39.503Z,36.62